Time;durP1;ratioP1;P1;durP2;ratioP2;P2;SDS_P1;SDS_P2;PMS_P1;PMS_P2;Temp;Humidity;BMP_temperature;BMP_pressure;BME280_temperature;BME280_humidity;BME280_pressure;Samples;Min_cycle;Max_cycle;Signal;HPM_P1;HPM_P2
2022/10/31 00:00:47;;;;;;;15.20;2.80;;;;;;;;;;4972788;28;20035;-53
2022/10/31 00:03:14;;;;;;;16.77;2.88;;;;;;;;;;4991456;28;20034;-54
2022/10/31 00:05:42;;;;;;;15.65;2.58;;;;;;;;;;4974782;28;20035;-49
2022/10/31 00:08:09;;;;;;;19.45;3.53;;;;;;;;;;4972608;28;20031;-50
2022/10/31 00:10:38;;;;;;;25.63;3.00;;;;;;;;;;4984917;28;20050;-52
2022/10/31 00:13:05;;;;;;;16.48;2.75;;;;;;;;;;4999322;22;20503;-49
2022/10/31 00:15:33;;;;;;;17.13;2.78;;;;;;;;;;5010729;28;20026;-49
2022/10/31 00:18:01;;;;;;;18.67;2.53;;;;;;;;;;5010517;28;20057;-53
2022/10/31 00:20:27;;;;;;;14.38;2.65;;;;;;;;;;5006337;28;20034;-53
2022/10/31 00:22:54;;;;;;;20.20;2.70;;;;;;;;;;5004297;28;20456;-57
2022/10/31 00:25:21;;;;;;;19.42;3.17;;;;;;;;;;5010024;28;20043;-52
2022/10/31 00:27:48;;;;;;;11.68;2.38;;;;;;;;;;5005509;28;20029;-51
2022/10/31 00:30:15;;;;;;;24.13;3.88;;;;;;;;;;5003724;28;20030;-50
2022/10/31 00:32:42;;;;;;;18.52;3.80;;;;;;;;;;4993292;28;20034;-49
2022/10/31 00:35:09;;;;;;;32.80;5.18;;;;;;;;;;5011396;28;20472;-49
2022/10/31 00:37:36;;;;;;;39.72;7.10;;;;;;;;;;5011360;28;20026;-52
2022/10/31 00:40:03;;;;;;;56.42;10.60;;;;;;;;;;5006831;28;20026;-50
2022/10/31 00:42:30;;;;;;;52.78;11.88;;;;;;;;;;5001181;28;20029;-50
2022/10/31 00:44:57;;;;;;;52.72;11.57;;;;;;;;;;5010590;28;20033;-53
2022/10/31 00:47:24;;;;;;;59.75;12.80;;;;;;;;;;5010486;28;20069;-49
2022/10/31 00:49:51;;;;;;;54.25;13.45;;;;;;;;;;5010887;28;20384;-51
2022/10/31 00:52:18;;;;;;;62.33;15.60;;;;;;;;;;4997233;28;20103;-48
2022/10/31 00:54:45;;;;;;;70.95;17.58;;;;;;;;;;5010633;28;20034;-48
2022/10/31 00:57:11;;;;;;;64.97;17.15;;;;;;;;;;5011160;28;20034;-52
2022/10/31 00:59:38;;;;;;;56.85;16.73;;;;;;;;;;4998244;28;20021;-46
2022/10/31 01:02:05;;;;;;;62.22;15.20;;;;;;;;;;5008316;28;20029;-49
2022/10/31 01:04:32;;;;;;;55.35;14.68;;;;;;;;;;5007894;28;20033;-51
2022/10/31 01:06:59;;;;;;;49.35;13.80;;;;;;;;;;5007603;28;20159;-48
2022/10/31 01:09:26;;;;;;;50.92;13.77;;;;;;;;;;5006970;28;20472;-49
2022/10/31 01:11:53;;;;;;;47.65;12.57;;;;;;;;;;5009025;28;20041;-48
2022/10/31 01:14:20;;;;;;;49.40;12.13;;;;;;;;;;5012987;28;20046;-48
2022/10/31 01:16:47;;;;;;;47.15;12.82;;;;;;;;;;5013141;28;20051;-50
2022/10/31 01:19:14;;;;;;;53.92;12.40;;;;;;;;;;5013208;28;20030;-46
2022/10/31 01:21:41;;;;;;;39.78;11.70;;;;;;;;;;5012423;28;20037;-49
2022/10/31 01:24:08;;;;;;;47.15;11.55;;;;;;;;;;5013041;28;20029;-46
2022/10/31 01:26:35;;;;;;;43.40;12.25;;;;;;;;;;5001415;28;20389;-53
2022/10/31 01:29:05;;;;;;;36.65;10.93;;;;;;;;;;4993616;28;20108;-54
2022/10/31 01:31:34;;;;;;;47.67;11.98;;;;;;;;;;4993718;28;20039;-50
2022/10/31 01:34:02;;;;;;;36.60;11.13;;;;;;;;;;4993678;28;20019;-50
2022/10/31 01:36:30;;;;;;;37.47;10.18;;;;;;;;;;4995723;28;20058;-54
2022/10/31 01:38:58;;;;;;;37.78;11.27;;;;;;;;;;5011564;28;20037;-49
2022/10/31 01:41:27;;;;;;;35.70;10.77;;;;;;;;;;5010140;28;20088;-55
2022/10/31 01:43:55;;;;;;;36.78;11.23;;;;;;;;;;5010787;28;20034;-50
2022/10/31 01:46:25;;;;;;;31.38;10.52;;;;;;;;;;5011693;28;20113;-55
2022/10/31 01:48:53;;;;;;;31.83;10.10;;;;;;;;;;5011356;28;20029;-53
2022/10/31 01:51:22;;;;;;;33.20;9.15;;;;;;;;;;5012052;28;20064;-50
2022/10/31 01:53:49;;;;;;;28.15;9.52;;;;;;;;;;5011826;28;20033;-52
2022/10/31 01:56:17;;;;;;;31.50;9.70;;;;;;;;;;5011881;28;20018;-47
2022/10/31 01:58:46;;;;;;;27.80;9.20;;;;;;;;;;5011736;28;20034;-54
2022/10/31 02:01:13;;;;;;;32.65;9.65;;;;;;;;;;5011893;28;20029;-55
2022/10/31 02:03:40;;;;;;;33.60;9.35;;;;;;;;;;5012959;28;20109;-53
2022/10/31 02:06:11;;;;;;;29.45;8.75;;;;;;;;;;5013787;28;20030;-55
2022/10/31 02:08:38;;;;;;;28.52;8.55;;;;;;;;;;5013991;28;20076;-48
2022/10/31 02:11:06;;;;;;;31.52;8.60;;;;;;;;;;5013827;28;20038;-55
2022/10/31 02:13:34;;;;;;;30.00;8.32;;;;;;;;;;5013532;28;20077;-53
2022/10/31 02:16:01;;;;;;;24.70;7.68;;;;;;;;;;5013718;28;20048;-52
2022/10/31 02:18:30;;;;;;;25.35;7.93;;;;;;;;;;5010746;28;20029;-53
2022/10/31 02:21:04;;;;;;;23.13;7.82;;;;;;;;;;5003485;28;20052;-49
2022/10/31 02:23:49;;;;;;;26.95;8.15;;;;;;;;;;4996950;28;20076;-53
2022/10/31 02:26:39;;;;;;;21.17;7.32;;;;;;;;;;5010334;28;20029;-54
2022/10/31 02:29:15;;;;;;;21.50;7.32;;;;;;;;;;4975812;28;20398;-55
2022/10/31 02:31:42;;;;;;;30.73;7.72;;;;;;;;;;5013086;28;20040;-49
2022/10/31 02:34:18;;;;;;;20.85;7.88;;;;;;;;;;5013110;28;20353;-52
2022/10/31 02:36:50;;;;;;;20.58;7.55;;;;;;;;;;5012811;28;20034;-50
2022/10/31 02:39:40;;;;;;;22.67;6.68;;;;;;;;;;5012690;28;20106;-49
2022/10/31 02:42:33;;;;;;;20.17;6.93;;;;;;;;;;4965878;28;20062;-51
2022/10/31 02:45:09;;;;;;;21.17;6.53;;;;;;;;;;4999768;28;20037;-52
2022/10/31 02:47:38;;;;;;;18.38;6.30;;;;;;;;;;5012951;28;20448;-52
2022/10/31 02:50:08;;;;;;;15.30;5.60;;;;;;;;;;5013030;28;20029;-53
2022/10/31 02:52:35;;;;;;;18.95;6.38;;;;;;;;;;5011609;28;20034;-50
2022/10/31 02:55:11;;;;;;;21.73;6.10;;;;;;;;;;5001074;28;20522;-48
2022/10/31 02:57:39;;;;;;;18.83;5.95;;;;;;;;;;5004054;28;20126;-50
2022/10/31 03:00:08;;;;;;;14.38;5.80;;;;;;;;;;5008591;28;20491;-50
2022/10/31 03:02:53;;;;;;;18.88;5.93;;;;;;;;;;5005118;28;20117;-51
2022/10/31 03:05:26;;;;;;;15.63;5.53;;;;;;;;;;4995854;28;20038;-51
2022/10/31 03:07:56;;;;;;;13.43;5.15;;;;;;;;;;5012802;28;20395;-52
2022/10/31 03:10:44;;;;;;;15.57;5.38;;;;;;;;;;5010466;28;20438;-48
2022/10/31 03:13:40;;;;;;;11.30;4.72;;;;;;;;;;4993024;28;20086;-53
2022/10/31 03:16:19;;;;;;;14.18;4.97;;;;;;;;;;4976768;28;20109;-50
2022/10/31 03:18:57;;;;;;;14.00;5.40;;;;;;;;;;4994281;28;20030;-48
2022/10/31 03:21:26;;;;;;;15.70;5.63;;;;;;;;;;5012789;28;20026;-48
2022/10/31 03:23:54;;;;;;;14.55;5.60;;;;;;;;;;5012520;28;20369;-48
2022/10/31 03:26:22;;;;;;;15.00;4.82;;;;;;;;;;5005027;28;20480;-48
2022/10/31 03:29:01;;;;;;;12.13;4.53;;;;;;;;;;5006816;28;20030;-57
2022/10/31 03:31:30;;;;;;;13.13;4.78;;;;;;;;;;5012625;28;20037;-48
2022/10/31 03:33:59;;;;;;;11.32;4.70;;;;;;;;;;5012343;28;20156;-47
2022/10/31 03:36:27;;;;;;;9.93;4.25;;;;;;;;;;5011711;28;20065;-52
2022/10/31 03:38:54;;;;;;;12.32;4.25;;;;;;;;;;5012493;28;20781;-49
2022/10/31 03:41:24;;;;;;;10.07;4.35;;;;;;;;;;5012306;28;20026;-52
2022/10/31 03:43:56;;;;;;;13.05;4.68;;;;;;;;;;5000769;28;20037;-52
2022/10/31 03:46:23;;;;;;;14.25;4.32;;;;;;;;;;4997231;28;20049;-47
2022/10/31 03:48:50;;;;;;;13.98;4.40;;;;;;;;;;5001682;28;20026;-53
2022/10/31 03:51:23;;;;;;;10.30;4.40;;;;;;;;;;4992485;28;20100;-48
2022/10/31 03:54:10;;;;;;;10.23;4.03;;;;;;;;;;5002430;28;20061;-48
2022/10/31 03:56:41;;;;;;;10.75;4.30;;;;;;;;;;4999563;28;20395;-49
2022/10/31 03:59:15;;;;;;;12.88;4.82;;;;;;;;;;5000105;28;20021;-51
2022/10/31 04:01:44;;;;;;;11.45;4.35;;;;;;;;;;4998315;28;20041;-47
2022/10/31 04:04:11;;;;;;;10.70;3.83;;;;;;;;;;5012041;28;20044;-48
2022/10/31 04:06:40;;;;;;;10.00;3.78;;;;;;;;;;5012129;28;20040;-48
2022/10/31 04:09:09;;;;;;;9.70;4.00;;;;;;;;;;5012004;28;20052;-52
2022/10/31 04:11:39;;;;;;;10.18;3.75;;;;;;;;;;5012044;28;20045;-48
2022/10/31 04:14:06;;;;;;;9.07;4.13;;;;;;;;;;4993198;28;20054;-47
2022/10/31 04:16:33;;;;;;;10.65;3.55;;;;;;;;;;5003322;28;20487;-47
2022/10/31 04:19:00;;;;;;;9.23;3.75;;;;;;;;;;5011925;28;20123;-48
2022/10/31 04:21:29;;;;;;;9.30;3.80;;;;;;;;;;5002801;28;20072;-49
2022/10/31 04:23:56;;;;;;;9.80;4.18;;;;;;;;;;5007585;28;20096;-50
2022/10/31 04:26:23;;;;;;;10.65;3.97;;;;;;;;;;5011917;28;20034;-48
2022/10/31 04:28:50;;;;;;;8.48;3.78;;;;;;;;;;4998034;28;20030;-50
2022/10/31 04:31:17;;;;;;;7.15;3.55;;;;;;;;;;5011847;28;20116;-47
2022/10/31 04:33:44;;;;;;;8.82;3.65;;;;;;;;;;5011797;28;20088;-47
2022/10/31 04:36:11;;;;;;;9.70;3.70;;;;;;;;;;5007157;28;20034;-50
2022/10/31 04:38:38;;;;;;;9.90;3.58;;;;;;;;;;4992223;28;20496;-48
2022/10/31 04:41:05;;;;;;;7.05;3.38;;;;;;;;;;5010281;28;20392;-49
2022/10/31 04:43:32;;;;;;;9.15;3.33;;;;;;;;;;5002857;28;20034;-49
2022/10/31 04:45:59;;;;;;;6.38;3.10;;;;;;;;;;5005849;28;20037;-47
2022/10/31 04:48:26;;;;;;;7.82;3.60;;;;;;;;;;5001701;28;20030;-47
2022/10/31 04:50:53;;;;;;;7.25;3.47;;;;;;;;;;5015396;28;20037;-48
2022/10/31 04:53:20;;;;;;;8.57;3.40;;;;;;;;;;5009553;28;20034;-50
2022/10/31 04:55:47;;;;;;;9.75;3.05;;;;;;;;;;5007522;28;20025;-51
2022/10/31 04:58:14;;;;;;;9.05;3.70;;;;;;;;;;5015285;28;20601;-52
2022/10/31 05:00:41;;;;;;;7.25;3.40;;;;;;;;;;5015150;28;20030;-51
2022/10/31 05:03:07;;;;;;;8.27;3.63;;;;;;;;;;5002903;28;20458;-49
2022/10/31 05:05:34;;;;;;;8.13;3.20;;;;;;;;;;5013849;28;20109;-52
2022/10/31 05:08:01;;;;;;;7.00;3.15;;;;;;;;;;5015126;28;20034;-48
2022/10/31 05:10:30;;;;;;;8.00;3.47;;;;;;;;;;5012076;28;20042;-49
2022/10/31 05:12:58;;;;;;;8.00;3.47;;;;;;;;;;4995240;28;20050;-49
2022/10/31 05:15:26;;;;;;;7.85;3.20;;;;;;;;;;5010791;28;20057;-46
2022/10/31 05:17:54;;;;;;;7.43;3.38;;;;;;;;;;5015023;28;20120;-47
2022/10/31 05:20:22;;;;;;;5.72;2.85;;;;;;;;;;5014848;28;20084;-48
2022/10/31 05:22:50;;;;;;;6.18;2.90;;;;;;;;;;5014875;28;20049;-50
2022/10/31 05:25:18;;;;;;;5.50;2.80;;;;;;;;;;5002266;28;20030;-52
2022/10/31 05:27:46;;;;;;;6.63;3.08;;;;;;;;;;5008951;28;20093;-51
2022/10/31 05:30:14;;;;;;;6.20;2.85;;;;;;;;;;5006342;28;20034;-54
2022/10/31 05:32:42;;;;;;;7.95;2.88;;;;;;;;;;5014502;28;20523;-52
2022/10/31 05:35:11;;;;;;;6.10;2.30;;;;;;;;;;5014712;28;20496;-49
2022/10/31 05:37:38;;;;;;;6.80;2.80;;;;;;;;;;5000769;28;20035;-47
2022/10/31 05:40:06;;;;;;;5.47;2.60;;;;;;;;;;5006085;28;20054;-46
2022/10/31 05:42:33;;;;;;;4.35;2.67;;;;;;;;;;5008525;28;20038;-51
2022/10/31 05:45:00;;;;;;;5.75;2.75;;;;;;;;;;5001960;28;20026;-47
2022/10/31 05:47:27;;;;;;;5.45;2.63;;;;;;;;;;5001395;28;20037;-49
2022/10/31 05:49:54;;;;;;;4.47;2.40;;;;;;;;;;5008503;28;20042;-52
2022/10/31 05:52:20;;;;;;;4.88;2.20;;;;;;;;;;4994774;28;20038;-47
2022/10/31 05:54:47;;;;;;;4.78;2.47;;;;;;;;;;5008390;28;20026;-48
2022/10/31 05:57:14;;;;;;;6.70;2.60;;;;;;;;;;5000594;28;20069;-52
2022/10/31 05:59:41;;;;;;;4.35;1.98;;;;;;;;;;5013295;28;20120;-49
2022/10/31 06:02:08;;;;;;;5.43;2.13;;;;;;;;;;5014204;28;20080;-47
2022/10/31 06:04:35;;;;;;;4.70;2.17;;;;;;;;;;5013714;28;20058;-50
2022/10/31 06:07:02;;;;;;;6.55;2.40;;;;;;;;;;5013960;28;20030;-47
2022/10/31 06:09:29;;;;;;;5.22;2.15;;;;;;;;;;5005326;28;20031;-48
2022/10/31 06:11:56;;;;;;;5.60;2.53;;;;;;;;;;5008037;28;20121;-48
2022/10/31 06:14:23;;;;;;;3.55;1.85;;;;;;;;;;5001291;28;20530;-50
2022/10/31 06:16:50;;;;;;;4.78;2.20;;;;;;;;;;5014001;28;20030;-47
2022/10/31 06:19:17;;;;;;;5.07;2.30;;;;;;;;;;5008475;28;20029;-47
2022/10/31 06:21:44;;;;;;;5.80;2.20;;;;;;;;;;5005676;28;20825;-50
2022/10/31 06:24:11;;;;;;;4.30;2.20;;;;;;;;;;5013842;28;20376;-50
2022/10/31 06:26:37;;;;;;;6.03;2.20;;;;;;;;;;5004125;28;20065;-48
2022/10/31 06:29:04;;;;;;;7.05;2.20;;;;;;;;;;5007835;28;20037;-50
2022/10/31 06:31:31;;;;;;;5.90;2.20;;;;;;;;;;5002152;28;20399;-46
2022/10/31 06:33:58;;;;;;;4.57;1.90;;;;;;;;;;4999496;28;20045;-47
2022/10/31 06:36:25;;;;;;;4.80;2.22;;;;;;;;;;4994078;28;20455;-49
2022/10/31 06:38:53;;;;;;;4.50;2.17;;;;;;;;;;5006532;28;20022;-50
2022/10/31 06:41:20;;;;;;;4.70;2.00;;;;;;;;;;5013377;28;20052;-47
2022/10/31 06:43:47;;;;;;;5.78;2.08;;;;;;;;;;5013417;28;20061;-49
2022/10/31 06:46:14;;;;;;;4.72;2.17;;;;;;;;;;4999541;28;20030;-48
2022/10/31 06:48:42;;;;;;;3.45;1.77;;;;;;;;;;5013435;28;20041;-50
2022/10/31 06:51:09;;;;;;;5.22;2.35;;;;;;;;;;5011442;28;20518;-47
2022/10/31 06:53:36;;;;;;;4.07;2.13;;;;;;;;;;5001470;28;20028;-47
2022/10/31 06:56:03;;;;;;;5.07;2.25;;;;;;;;;;5013074;28;20513;-50
2022/10/31 06:58:30;;;;;;;6.18;2.17;;;;;;;;;;5013079;28;20044;-50
2022/10/31 07:01:00;;;;;;;3.80;2.00;;;;;;;;;;5013175;28;20034;-50
2022/10/31 07:03:27;;;;;;;4.18;2.20;;;;;;;;;;5011833;28;20038;-50
2022/10/31 07:05:56;;;;;;;4.05;2.00;;;;;;;;;;4993507;28;20088;-52
2022/10/31 07:08:23;;;;;;;3.90;1.77;;;;;;;;;;5006974;28;20047;-49
2022/10/31 07:10:57;;;;;;;3.03;1.80;;;;;;;;;;5012800;28;20069;-52
2022/10/31 07:13:25;;;;;;;5.00;2.20;;;;;;;;;;5012688;28;20042;-46
2022/10/31 07:15:53;;;;;;;3.75;1.90;;;;;;;;;;5012814;28;20036;-49
2022/10/31 07:18:21;;;;;;;3.47;1.90;;;;;;;;;;5012892;28;20040;-51
2022/10/31 07:20:48;;;;;;;4.47;1.73;;;;;;;;;;5008917;28;20037;-48
2022/10/31 07:23:15;;;;;;;5.85;2.00;;;;;;;;;;5003190;28;20029;-49
2022/10/31 07:25:43;;;;;;;3.85;1.98;;;;;;;;;;5012668;28;20034;-50
2022/10/31 07:28:10;;;;;;;3.47;1.77;;;;;;;;;;5012700;28;20384;-48
2022/10/31 07:30:38;;;;;;;4.40;1.80;;;;;;;;;;4998717;28;20058;-46
2022/10/31 07:33:05;;;;;;;3.88;1.80;;;;;;;;;;5005336;28;20041;-48
2022/10/31 07:35:34;;;;;;;2.85;1.70;;;;;;;;;;4992699;28;20038;-47
2022/10/31 07:38:08;;;;;;;3.10;1.33;;;;;;;;;;5012122;28;20561;-47
2022/10/31 07:40:35;;;;;;;3.30;1.67;;;;;;;;;;4999694;28;20081;-47
2022/10/31 07:43:02;;;;;;;3.85;1.60;;;;;;;;;;5011239;28;20030;-46
2022/10/31 07:45:29;;;;;;;2.25;1.60;;;;;;;;;;5001493;28;20432;-50
2022/10/31 07:47:56;;;;;;;3.40;1.60;;;;;;;;;;4995833;28;20030;-46
2022/10/31 07:50:24;;;;;;;2.83;1.80;;;;;;;;;;5003011;28;20459;-48
2022/10/31 07:53:01;;;;;;;3.78;1.70;;;;;;;;;;4994320;28;20045;-46
2022/10/31 07:55:28;;;;;;;2.60;1.65;;;;;;;;;;5012252;28;20029;-47
2022/10/31 07:58:01;;;;;;;2.92;1.60;;;;;;;;;;5000935;28;20034;-47
2022/10/31 08:00:28;;;;;;;2.45;1.42;;;;;;;;;;5010786;28;20503;-49
2022/10/31 08:02:59;;;;;;;2.33;1.40;;;;;;;;;;5012099;28;20030;-49
2022/10/31 08:05:26;;;;;;;3.80;1.50;;;;;;;;;;5012013;28;20030;-47
2022/10/31 08:07:53;;;;;;;3.60;1.60;;;;;;;;;;5002733;28;20026;-50
2022/10/31 08:10:21;;;;;;;3.13;1.55;;;;;;;;;;5007862;28;20030;-52
2022/10/31 08:12:47;;;;;;;4.07;1.55;;;;;;;;;;5011861;28;20041;-48
2022/10/31 08:15:14;;;;;;;5.43;2.10;;;;;;;;;;5012038;28;20073;-49
2022/10/31 08:17:41;;;;;;;5.60;1.88;;;;;;;;;;5011943;28;20443;-48
2022/10/31 08:20:08;;;;;;;5.05;1.65;;;;;;;;;;4999850;28;20089;-46
2022/10/31 08:22:35;;;;;;;3.65;1.63;;;;;;;;;;4993320;28;20487;-46
2022/10/31 08:25:02;;;;;;;4.03;1.45;;;;;;;;;;5007117;28;20088;-50
2022/10/31 08:27:29;;;;;;;4.18;1.60;;;;;;;;;;5015845;28;20041;-49
2022/10/31 08:29:56;;;;;;;3.30;1.33;;;;;;;;;;5006960;28;20022;-47
2022/10/31 08:32:23;;;;;;;2.47;1.50;;;;;;;;;;5011183;28;20038;-49
2022/10/31 08:34:53;;;;;;;3.10;1.40;;;;;;;;;;5015526;28;20053;-46
2022/10/31 08:37:20;;;;;;;3.03;1.65;;;;;;;;;;5001905;28;20514;-55
2022/10/31 08:39:47;;;;;;;3.28;1.38;;;;;;;;;;5009620;28;20502;-49
2022/10/31 08:42:14;;;;;;;2.97;1.50;;;;;;;;;;5008245;28;20077;-47
2022/10/31 08:44:41;;;;;;;2.30;1.40;;;;;;;;;;5015573;28;20033;-48
2022/10/31 08:47:08;;;;;;;2.97;1.60;;;;;;;;;;5015585;28;20033;-50
2022/10/31 08:49:35;;;;;;;2.83;1.38;;;;;;;;;;5015392;28;20555;-50
2022/10/31 08:52:02;;;;;;;6.90;1.67;;;;;;;;;;5015464;28;20064;-47
2022/10/31 08:54:29;;;;;;;2.83;1.70;;;;;;;;;;5015404;28;20026;-50
2022/10/31 08:56:56;;;;;;;3.53;1.65;;;;;;;;;;5012041;28;20496;-51
2022/10/31 08:59:23;;;;;;;3.03;1.60;;;;;;;;;;5005251;28;20033;-52
2022/10/31 09:01:50;;;;;;;2.35;1.30;;;;;;;;;;5001406;28;20034;-50
2022/10/31 09:04:17;;;;;;;2.65;1.50;;;;;;;;;;5015238;28;20084;-51
2022/10/31 09:06:44;;;;;;;3.63;1.55;;;;;;;;;;5015220;28;20128;-51
2022/10/31 09:09:11;;;;;;;3.30;1.63;;;;;;;;;;5009024;28;20073;-52
2022/10/31 09:11:38;;;;;;;3.00;1.60;;;;;;;;;;5007635;28;20403;-48
2022/10/31 09:14:05;;;;;;;4.28;1.88;;;;;;;;;;5014965;28;20073;-50
2022/10/31 09:16:32;;;;;;;2.78;1.40;;;;;;;;;;5015067;28;20037;-50
2022/10/31 09:18:59;;;;;;;3.70;1.65;;;;;;;;;;5001182;28;20022;-50
2022/10/31 09:21:25;;;;;;;2.70;1.40;;;;;;;;;;5006004;28;20034;-50
2022/10/31 09:23:53;;;;;;;2.10;1.23;;;;;;;;;;5009070;28;20087;-47
2022/10/31 09:26:21;;;;;;;2.80;1.15;;;;;;;;;;5002683;28;20112;-49
2022/10/31 09:28:48;;;;;;;4.18;1.85;;;;;;;;;;5014756;28;20030;-52
2022/10/31 09:31:15;;;;;;;3.90;1.38;;;;;;;;;;5014759;28;20030;-50
2022/10/31 09:33:42;;;;;;;3.72;1.52;;;;;;;;;;5001923;28;20130;-50
2022/10/31 09:36:09;;;;;;;4.28;1.50;;;;;;;;;;5007919;28;20038;-50
2022/10/31 09:38:36;;;;;;;3.25;1.50;;;;;;;;;;5005215;28;20061;-49
2022/10/31 09:41:02;;;;;;;3.40;1.70;;;;;;;;;;5011793;28;20038;-49
2022/10/31 09:43:45;;;;;;;2.67;1.40;;;;;;;;;;5003397;28;20045;-49
2022/10/31 09:46:17;;;;;;;4.40;1.45;;;;;;;;;;5000540;28;20025;-51
2022/10/31 09:48:44;;;;;;;3.78;1.60;;;;;;;;;;5004677;28;20065;-48
2022/10/31 09:51:14;;;;;;;3.08;1.40;;;;;;;;;;5010556;28;20029;-48
2022/10/31 09:53:48;;;;;;;3.58;1.50;;;;;;;;;;5005853;28;20034;-48
2022/10/31 09:56:16;;;;;;;4.13;1.42;;;;;;;;;;5010156;28;20052;-46
2022/10/31 09:58:45;;;;;;;5.07;1.67;;;;;;;;;;5014217;28;20034;-47
2022/10/31 10:01:34;;;;;;;3.00;1.70;;;;;;;;;;5003795;28;20049;-50
2022/10/31 10:04:20;;;;;;;3.75;1.60;;;;;;;;;;5008321;28;20030;-47
2022/10/31 10:06:48;;;;;;;4.65;1.63;;;;;;;;;;5008711;28;20578;-51
2022/10/31 10:09:15;;;;;;;5.80;1.65;;;;;;;;;;5013955;28;20034;-49
2022/10/31 10:11:54;;;;;;;6.72;1.73;;;;;;;;;;5013825;28;20041;-52
2022/10/31 10:14:36;;;;;;;6.45;2.00;;;;;;;;;;5000955;28;20050;-49
2022/10/31 10:17:03;;;;;;;5.70;1.85;;;;;;;;;;5012743;28;20038;-49
2022/10/31 10:19:43;;;;;;;4.18;1.60;;;;;;;;;;5001501;28;20775;-49
2022/10/31 10:22:21;;;;;;;5.93;2.00;;;;;;;;;;5013648;28;20116;-49
2022/10/31 10:24:56;;;;;;;3.33;1.60;;;;;;;;;;5013841;28;20496;-47
2022/10/31 10:27:47;;;;;;;5.57;2.17;;;;;;;;;;4999856;28;20073;-51
2022/10/31 10:30:14;;;;;;;2.97;1.67;;;;;;;;;;5002156;28;20032;-48
2022/10/31 10:32:50;;;;;;;4.90;1.92;;;;;;;;;;5011334;28;20549;-55
2022/10/31 10:35:25;;;;;;;6.03;1.73;;;;;;;;;;5013551;28;20549;-50
2022/10/31 10:37:57;;;;;;;8.48;2.30;;;;;;;;;;5013392;28;20137;-47
2022/10/31 10:40:28;;;;;;;4.65;1.80;;;;;;;;;;5013520;28;20555;-51
2022/10/31 10:48:43;;;;;;;7.45;1.92;;;;;;;;;;5001382;28;20095;-47
2022/10/31 10:51:21;;;;;;;5.00;1.80;;;;;;;;;;5013029;28;20065;-46
2022/10/31 10:54:01;;;;;;;6.47;1.92;;;;;;;;;;5003694;28;20035;-51
2022/10/31 10:56:40;;;;;;;9.38;2.05;;;;;;;;;;4993222;28;20045;-47
2022/10/31 10:59:10;;;;;;;9.18;2.60;;;;;;;;;;4993614;28;20076;-49
2022/10/31 11:01:37;;;;;;;5.28;1.90;;;;;;;;;;5007156;28;20032;-55
2022/10/31 11:04:12;;;;;;;5.43;1.77;;;;;;;;;;5013132;28;20084;-47
2022/10/31 11:06:39;;;;;;;7.18;2.22;;;;;;;;;;4995749;28;20037;-48
2022/10/31 11:09:12;;;;;;;4.85;1.63;;;;;;;;;;5011825;28;20036;-52
2022/10/31 11:11:39;;;;;;;6.47;1.70;;;;;;;;;;5001392;28;20044;-50
2022/10/31 11:14:15;;;;;;;5.32;1.60;;;;;;;;;;5003526;28;20448;-48
2022/10/31 11:16:44;;;;;;;4.55;1.90;;;;;;;;;;5011205;28;20025;-49
2022/10/31 11:19:17;;;;;;;3.83;1.50;;;;;;;;;;5002046;28;20042;-50
2022/10/31 11:21:46;;;;;;;8.32;1.88;;;;;;;;;;4993132;28;20105;-50
2022/10/31 11:24:15;;;;;;;2.97;1.48;;;;;;;;;;5008478;28;20120;-49
2022/10/31 11:26:43;;;;;;;6.47;1.65;;;;;;;;;;5009298;28;20372;-50
2022/10/31 11:29:18;;;;;;;4.07;1.35;;;;;;;;;;5011406;28;20135;-54
2022/10/31 11:31:46;;;;;;;4.40;1.60;;;;;;;;;;5011354;28;20503;-50
2022/10/31 11:34:18;;;;;;;4.72;2.03;;;;;;;;;;5011536;28;20017;-44
2022/10/31 11:36:45;;;;;;;5.07;1.55;;;;;;;;;;5009565;28;20038;-47
2022/10/31 11:39:19;;;;;;;6.07;1.77;;;;;;;;;;5011013;28;20049;-46
2022/10/31 11:41:47;;;;;;;6.00;1.80;;;;;;;;;;5010540;28;20036;-46
2022/10/31 11:44:14;;;;;;;5.07;2.40;;;;;;;;;;5006401;28;20038;-52
2022/10/31 11:46:46;;;;;;;10.80;3.05;;;;;;;;;;5010955;28;20022;-45
2022/10/31 11:49:29;;;;;;;10.57;3.28;;;;;;;;;;5010096;28;20026;-45
2022/10/31 11:51:57;;;;;;;13.63;3.25;;;;;;;;;;5007406;28;20044;-45
2022/10/31 11:54:33;;;;;;;8.90;2.70;;;;;;;;;;5010432;28;20484;-48
2022/10/31 11:57:00;;;;;;;12.85;3.20;;;;;;;;;;5010725;28;20030;-51
2022/10/31 11:59:27;;;;;;;15.07;3.13;;;;;;;;;;5010060;28;20026;-48
2022/10/31 12:01:56;;;;;;;10.43;3.20;;;;;;;;;;5011355;28;20096;-47
2022/10/31 12:04:30;;;;;;;10.68;2.85;;;;;;;;;;5008623;28;20061;-47
2022/10/31 12:06:58;;;;;;;13.75;3.35;;;;;;;;;;5011319;28;20030;-52
2022/10/31 12:09:25;;;;;;;11.15;2.80;;;;;;;;;;5010225;28;20080;-56
2022/10/31 12:12:08;;;;;;;12.10;2.50;;;;;;;;;;5010891;28;20045;-51
2022/10/31 12:14:44;;;;;;;10.93;2.75;;;;;;;;;;5010123;28;20053;-47
2022/10/31 12:17:17;;;;;;;11.55;2.40;;;;;;;;;;5010677;28;20046;-54
2022/10/31 12:19:44;;;;;;;13.82;2.95;;;;;;;;;;5011155;28;20319;-55
2022/10/31 12:22:29;;;;;;;10.25;2.70;;;;;;;;;;5001626;28;20085;-53
2022/10/31 12:25:04;;;;;;;8.60;2.33;;;;;;;;;;5005563;28;20033;-55
2022/10/31 12:27:38;;;;;;;9.20;2.33;;;;;;;;;;5002062;28;20173;-53
2022/10/31 12:30:16;;;;;;;8.18;2.45;;;;;;;;;;5011352;28;20117;-53
2022/10/31 12:33:03;;;;;;;10.30;2.30;;;;;;;;;;5010711;28;20587;-56
2022/10/31 12:35:42;;;;;;;8.88;2.33;;;;;;;;;;5011699;28;20427;-53
2022/10/31 12:38:09;;;;;;;8.80;2.72;;;;;;;;;;5010997;28;20125;-55
2022/10/31 12:40:39;;;;;;;10.93;2.53;;;;;;;;;;5004286;28;20041;-53
2022/10/31 12:43:12;;;;;;;13.52;2.88;;;;;;;;;;4991256;28;20031;-58
2022/10/31 12:45:57;;;;;;;10.10;2.25;;;;;;;;;;4998598;28;20088;-52
2022/10/31 12:48:34;;;;;;;15.63;2.55;;;;;;;;;;4995702;28;20027;-47
2022/10/31 12:51:16;;;;;;;9.32;2.17;;;;;;;;;;5000436;28;20044;-55
2022/10/31 12:53:59;;;;;;;7.45;1.95;;;;;;;;;;5010700;28;20025;-51
2022/10/31 12:56:45;;;;;;;6.38;2.17;;;;;;;;;;5011432;28;20383;-50
2022/10/31 12:59:21;;;;;;;9.43;2.10;;;;;;;;;;4999272;28;20068;-50
2022/10/31 13:02:01;;;;;;;9.00;2.00;;;;;;;;;;5011366;28;20029;-46
2022/10/31 13:04:36;;;;;;;11.57;2.13;;;;;;;;;;5010635;28;20369;-46
2022/10/31 13:07:08;;;;;;;8.02;1.75;;;;;;;;;;5011317;28;20066;-49
2022/10/31 13:09:38;;;;;;;8.00;2.10;;;;;;;;;;4996290;28;20076;-46
2022/10/31 13:12:13;;;;;;;11.75;2.35;;;;;;;;;;5012458;28;20096;-45
2022/10/31 13:14:43;;;;;;;10.00;1.92;;;;;;;;;;5003754;28;20096;-51
2022/10/31 13:17:33;;;;;;;9.82;1.77;;;;;;;;;;4996082;28;20102;-54
2022/10/31 13:20:09;;;;;;;16.80;2.25;;;;;;;;;;5007214;28;20048;-52
2022/10/31 13:22:37;;;;;;;8.10;2.05;;;;;;;;;;5013397;28;20033;-49
2022/10/31 13:25:10;;;;;;;7.13;2.00;;;;;;;;;;5011980;28;20472;-49
2022/10/31 13:27:54;;;;;;;7.35;1.98;;;;;;;;;;5013375;28;20030;-52
2022/10/31 13:30:22;;;;;;;8.77;1.98;;;;;;;;;;5011207;28;20034;-56
2022/10/31 13:33:01;;;;;;;8.95;2.15;;;;;;;;;;4995084;28;20120;-50
2022/10/31 13:35:37;;;;;;;7.55;1.95;;;;;;;;;;5011367;28;20037;-54
2022/10/31 13:38:04;;;;;;;7.45;1.65;;;;;;;;;;5014048;28;20038;-55
2022/10/31 13:40:42;;;;;;;5.90;1.90;;;;;;;;;;4997602;28;20488;-53
2022/10/31 13:43:27;;;;;;;5.85;2.30;;;;;;;;;;4994516;28;20039;-54
2022/10/31 13:45:56;;;;;;;9.57;1.85;;;;;;;;;;5013828;28;20030;-49
2022/10/31 13:48:26;;;;;;;6.40;2.05;;;;;;;;;;5002873;28;20084;-53
2022/10/31 13:51:01;;;;;;;6.15;1.90;;;;;;;;;;4999041;28;20125;-52
2022/10/31 13:53:39;;;;;;;7.30;2.00;;;;;;;;;;5014322;28;20041;-55
2022/10/31 13:56:09;;;;;;;5.85;2.05;;;;;;;;;;5005555;28;20026;-52
2022/10/31 13:58:36;;;;;;;13.63;2.22;;;;;;;;;;5000278;28;20029;-52
2022/10/31 14:01:06;;;;;;;10.75;2.10;;;;;;;;;;5014181;28;20041;-50
2022/10/31 14:03:34;;;;;;;10.98;2.25;;;;;;;;;;5000287;28;20519;-52
2022/10/31 14:06:01;;;;;;;10.02;2.00;;;;;;;;;;5006194;28;20026;-52
2022/10/31 14:08:28;;;;;;;9.88;2.25;;;;;;;;;;5006697;28;20033;-50
2022/10/31 14:10:56;;;;;;;7.38;1.50;;;;;;;;;;5012946;28;20487;-55
2022/10/31 14:13:23;;;;;;;6.53;1.73;;;;;;;;;;4994316;28;20062;-50
2022/10/31 14:15:58;;;;;;;23.10;2.33;;;;;;;;;;5005426;28;20508;-54
2022/10/31 14:18:32;;;;;;;17.42;1.85;;;;;;;;;;5008414;28;20034;-54
2022/10/31 14:20:59;;;;;;;9.63;1.77;;;;;;;;;;5004602;28;20034;-53
2022/10/31 14:23:26;;;;;;;26.15;2.40;;;;;;;;;;4989791;28;20030;-52
2022/10/31 14:25:53;;;;;;;12.25;2.08;;;;;;;;;;5010352;28;20029;-51
2022/10/31 14:28:33;;;;;;;12.80;1.92;;;;;;;;;;5013580;28;20122;-54
2022/10/31 14:31:00;;;;;;;12.13;1.85;;;;;;;;;;5000999;28;20037;-54
2022/10/31 14:33:28;;;;;;;11.45;2.25;;;;;;;;;;4998931;28;20022;-59
2022/10/31 14:36:04;;;;;;;11.55;2.30;;;;;;;;;;5005416;28;20034;-52
2022/10/31 14:38:43;;;;;;;17.10;2.10;;;;;;;;;;5007041;28;20093;-54
2022/10/31 14:41:28;;;;;;;18.20;2.00;;;;;;;;;;5000360;28;20022;-57
2022/10/31 14:44:00;;;;;;;11.25;1.70;;;;;;;;;;4998806;28;20088;-57
2022/10/31 14:46:33;;;;;;;17.52;2.30;;;;;;;;;;5011000;28;20044;-55
2022/10/31 14:49:03;;;;;;;17.13;2.30;;;;;;;;;;4996582;28;20038;-57
2022/10/31 14:51:36;;;;;;;12.00;1.90;;;;;;;;;;5001250;28;20049;-58
2022/10/31 14:54:03;;;;;;;17.83;2.20;;;;;;;;;;5012742;28;20033;-55
2022/10/31 14:56:31;;;;;;;9.57;1.73;;;;;;;;;;5011665;28;20046;-55
2022/10/31 14:59:03;;;;;;;11.40;1.95;;;;;;;;;;5011843;28;20499;-53